sensor_id;sensor_type;location;lat;lon;timestamp;temperature;humidity
39751;DHT22;37579;51.074;17.004;2023-01-09T00:02:19;22.70;58.10
39751;DHT22;37579;51.074;17.004;2023-01-09T00:04:45;22.70;58.20
39751;DHT22;37579;51.074;17.004;2023-01-09T00:07:11;22.70;58.30
39751;DHT22;37579;51.074;17.004;2023-01-09T00:09:37;22.70;58.20
39751;DHT22;37579;51.074;17.004;2023-01-09T00:12:03;22.70;58.30
39751;DHT22;37579;51.074;17.004;2023-01-09T00:14:29;22.70;58.40
39751;DHT22;37579;51.074;17.004;2023-01-09T00:16:55;22.60;58.20
39751;DHT22;37579;51.074;17.004;2023-01-09T00:19:21;22.60;58.30
39751;DHT22;37579;51.074;17.004;2023-01-09T00:21:47;22.70;58.30
39751;DHT22;37579;51.074;17.004;2023-01-09T00:24:13;22.60;58.20
39751;DHT22;37579;51.074;17.004;2023-01-09T00:26:39;22.60;58.20
39751;DHT22;37579;51.074;17.004;2023-01-09T00:29:09;22.60;58.20
39751;DHT22;37579;51.074;17.004;2023-01-09T00:31:35;22.60;58.30
39751;DHT22;37579;51.074;17.004;2023-01-09T00:34:06;22.60;58.30
39751;DHT22;37579;51.074;17.004;2023-01-09T00:36:32;22.60;58.30
39751;DHT22;37579;51.074;17.004;2023-01-09T00:38:58;22.60;58.30
39751;DHT22;37579;51.074;17.004;2023-01-09T00:41:45;22.60;58.30
39751;DHT22;37579;51.074;17.004;2023-01-09T00:44:22;22.60;58.30
39751;DHT22;37579;51.074;17.004;2023-01-09T00:47:08;22.60;58.40
39751;DHT22;37579;51.074;17.004;2023-01-09T00:49:36;22.50;58.40
39751;DHT22;37579;51.074;17.004;2023-01-09T00:52:03;22.50;58.40
39751;DHT22;37579;51.074;17.004;2023-01-09T00:54:30;22.50;58.40
39751;DHT22;37579;51.074;17.004;2023-01-09T00:56:57;22.50;58.40
39751;DHT22;37579;51.074;17.004;2023-01-09T00:59:23;22.50;58.40
39751;DHT22;37579;51.074;17.004;2023-01-09T01:01:49;22.50;58.40
39751;DHT22;37579;51.074;17.004;2023-01-09T01:04:15;22.40;58.40
39751;DHT22;37579;51.074;17.004;2023-01-09T01:06:59;22.50;58.50
39751;DHT22;37579;51.074;17.004;2023-01-09T01:09:43;22.50;58.40
39751;DHT22;37579;51.074;17.004;2023-01-09T01:12:09;22.50;58.40
39751;DHT22;37579;51.074;17.004;2023-01-09T01:14:36;22.40;58.40
39751;DHT22;37579;51.074;17.004;2023-01-09T01:17:03;22.40;58.40
39751;DHT22;37579;51.074;17.004;2023-01-09T01:19:29;22.40;58.30
39751;DHT22;37579;51.074;17.004;2023-01-09T01:21:55;22.40;58.40
39751;DHT22;37579;51.074;17.004;2023-01-09T01:24:21;22.40;58.40
39751;DHT22;37579;51.074;17.004;2023-01-09T01:26:47;22.40;58.40
39751;DHT22;37579;51.074;17.004;2023-01-09T01:29:13;22.40;58.50
39751;DHT22;37579;51.074;17.004;2023-01-09T01:31:39;22.40;58.50
39751;DHT22;37579;51.074;17.004;2023-01-09T01:34:04;22.40;58.50
39751;DHT22;37579;51.074;17.004;2023-01-09T01:36:31;22.40;58.40
39751;DHT22;37579;51.074;17.004;2023-01-09T01:38:57;22.40;58.40
39751;DHT22;37579;51.074;17.004;2023-01-09T01:41:23;22.40;58.40
39751;DHT22;37579;51.074;17.004;2023-01-09T01:44:00;22.30;58.50
39751;DHT22;37579;51.074;17.004;2023-01-09T01:46:28;22.30;59.10
39751;DHT22;37579;51.074;17.004;2023-01-09T01:49:11;22.30;58.50
39751;DHT22;37579;51.074;17.004;2023-01-09T01:51:42;22.30;58.50
39751;DHT22;37579;51.074;17.004;2023-01-09T01:54:13;22.30;58.30
39751;DHT22;37579;51.074;17.004;2023-01-09T01:56:45;22.30;58.40
39751;DHT22;37579;51.074;17.004;2023-01-09T01:59:24;22.30;58.40
39751;DHT22;37579;51.074;17.004;2023-01-09T02:01:53;22.30;58.40
39751;DHT22;37579;51.074;17.004;2023-01-09T02:04:20;22.30;58.40
39751;DHT22;37579;51.074;17.004;2023-01-09T02:06:48;22.30;58.50
39751;DHT22;37579;51.074;17.004;2023-01-09T02:09:16;22.30;58.50
39751;DHT22;37579;51.074;17.004;2023-01-09T02:11:49;22.30;58.50
39751;DHT22;37579;51.074;17.004;2023-01-09T02:14:16;22.20;58.40
39751;DHT22;37579;51.074;17.004;2023-01-09T02:17:31;22.20;58.40
39751;DHT22;37579;51.074;17.004;2023-01-09T02:22:36;22.30;58.40
39751;DHT22;37579;51.074;17.004;2023-01-09T02:36:29;22.20;58.30
39751;DHT22;37579;51.074;17.004;2023-01-09T02:41:37;22.20;58.30
39751;DHT22;37579;51.074;17.004;2023-01-09T02:44:22;22.20;58.30
39751;DHT22;37579;51.074;17.004;2023-01-09T02:47:44;22.20;58.40
39751;DHT22;37579;51.074;17.004;2023-01-09T02:49:56;22.20;58.20
39751;DHT22;37579;51.074;17.004;2023-01-09T03:03:35;22.20;58.10
39751;DHT22;37579;51.074;17.004;2023-01-09T03:06:26;22.30;58.10
39751;DHT22;37579;51.074;17.004;2023-01-09T03:09:00;22.30;58.00
39751;DHT22;37579;51.074;17.004;2023-01-09T03:11:31;22.30;58.00
39751;DHT22;37579;51.074;17.004;2023-01-09T03:14:05;22.30;57.80
39751;DHT22;37579;51.074;17.004;2023-01-09T03:16:35;22.30;57.80
39751;DHT22;37579;51.074;17.004;2023-01-09T03:19:05;22.30;58.40
39751;DHT22;37579;51.074;17.004;2023-01-09T03:21:33;22.30;57.80
39751;DHT22;37579;51.074;17.004;2023-01-09T03:24:00;22.30;57.80
39751;DHT22;37579;51.074;17.004;2023-01-09T03:26:27;22.30;57.70
39751;DHT22;37579;51.074;17.004;2023-01-09T03:28:57;22.30;57.60
39751;DHT22;37579;51.074;17.004;2023-01-09T03:31:23;22.30;57.60
39751;DHT22;37579;51.074;17.004;2023-01-09T03:33:48;22.40;57.60
39751;DHT22;37579;51.074;17.004;2023-01-09T03:36:16;22.40;57.40
39751;DHT22;37579;51.074;17.004;2023-01-09T03:38:42;22.30;57.50
39751;DHT22;37579;51.074;17.004;2023-01-09T03:41:08;22.40;57.40
39751;DHT22;37579;51.074;17.004;2023-01-09T03:43:34;22.40;57.40
39751;DHT22;37579;51.074;17.004;2023-01-09T03:46:01;22.40;57.40
39751;DHT22;37579;51.074;17.004;2023-01-09T03:48:26;22.40;57.40
39751;DHT22;37579;51.074;17.004;2023-01-09T03:50:53;22.40;57.30
39751;DHT22;37579;51.074;17.004;2023-01-09T03:53:22;22.40;57.20
39751;DHT22;37579;51.074;17.004;2023-01-09T03:55:50;22.40;57.20
39751;DHT22;37579;51.074;17.004;2023-01-09T03:58:17;22.40;57.30
39751;DHT22;37579;51.074;17.004;2023-01-09T04:00:44;22.40;57.30
39751;DHT22;37579;51.074;17.004;2023-01-09T04:03:11;22.40;57.20
39751;DHT22;37579;51.074;17.004;2023-01-09T04:05:38;22.40;57.20
39751;DHT22;37579;51.074;17.004;2023-01-09T04:08:04;22.40;57.20
39751;DHT22;37579;51.074;17.004;2023-01-09T04:10:30;22.40;57.20
39751;DHT22;37579;51.074;17.004;2023-01-09T04:12:56;22.40;57.20
39751;DHT22;37579;51.074;17.004;2023-01-09T04:15:22;22.40;57.10
39751;DHT22;37579;51.074;17.004;2023-01-09T04:17:48;22.40;57.10
39751;DHT22;37579;51.074;17.004;2023-01-09T04:20:15;22.40;57.10
39751;DHT22;37579;51.074;17.004;2023-01-09T04:22:41;22.40;57.00
39751;DHT22;37579;51.074;17.004;2023-01-09T04:25:07;22.40;57.00
39751;DHT22;37579;51.074;17.004;2023-01-09T04:27:33;22.40;57.00
39751;DHT22;37579;51.074;17.004;2023-01-09T04:29:59;22.30;57.00
39751;DHT22;37579;51.074;17.004;2023-01-09T04:32:24;22.40;57.00
39751;DHT22;37579;51.074;17.004;2023-01-09T04:34:53;22.30;57.00
39751;DHT22;37579;51.074;17.004;2023-01-09T04:37:19;22.40;57.00
39751;DHT22;37579;51.074;17.004;2023-01-09T04:39:45;22.40;57.10
39751;DHT22;37579;51.074;17.004;2023-01-09T04:42:12;22.30;57.10
39751;DHT22;37579;51.074;17.004;2023-01-09T04:44:38;22.30;57.00
39751;DHT22;37579;51.074;17.004;2023-01-09T04:47:04;22.30;57.10
39751;DHT22;37579;51.074;17.004;2023-01-09T04:49:29;22.30;57.10
39751;DHT22;37579;51.074;17.004;2023-01-09T04:51:55;22.30;57.10
39751;DHT22;37579;51.074;17.004;2023-01-09T04:54:22;22.30;57.10
39751;DHT22;37579;51.074;17.004;2023-01-09T04:56:48;22.30;57.00
39751;DHT22;37579;51.074;17.004;2023-01-09T04:59:14;22.30;57.00
39751;DHT22;37579;51.074;17.004;2023-01-09T05:01:39;22.30;57.00
39751;DHT22;37579;51.074;17.004;2023-01-09T05:04:06;22.30;57.00
39751;DHT22;37579;51.074;17.004;2023-01-09T05:06:32;22.30;57.00
39751;DHT22;37579;51.074;17.004;2023-01-09T05:08:59;22.30;57.00
39751;DHT22;37579;51.074;17.004;2023-01-09T05:11:25;22.30;57.10
39751;DHT22;37579;51.074;17.004;2023-01-09T05:13:52;22.30;57.10
39751;DHT22;37579;51.074;17.004;2023-01-09T05:16:19;22.30;57.00
39751;DHT22;37579;51.074;17.004;2023-01-09T05:18:44;22.30;56.90
39751;DHT22;37579;51.074;17.004;2023-01-09T05:21:11;22.30;56.90
39751;DHT22;37579;51.074;17.004;2023-01-09T05:23:37;22.30;56.80
39751;DHT22;37579;51.074;17.004;2023-01-09T05:26:03;22.40;56.80
39751;DHT22;37579;51.074;17.004;2023-01-09T05:28:29;22.40;56.60
39751;DHT22;37579;51.074;17.004;2023-01-09T05:30:55;22.40;56.50
39751;DHT22;37579;51.074;17.004;2023-01-09T05:33:22;22.50;56.50
39751;DHT22;37579;51.074;17.004;2023-01-09T05:35:48;22.50;56.40
39751;DHT22;37579;51.074;17.004;2023-01-09T05:38:14;22.50;56.40
39751;DHT22;37579;51.074;17.004;2023-01-09T05:40:39;22.50;56.40
39751;DHT22;37579;51.074;17.004;2023-01-09T05:43:06;22.50;56.30
39751;DHT22;37579;51.074;17.004;2023-01-09T05:45:32;22.50;56.30
39751;DHT22;37579;51.074;17.004;2023-01-09T05:47:57;22.50;56.30
39751;DHT22;37579;51.074;17.004;2023-01-09T05:50:23;22.50;56.20
39751;DHT22;37579;51.074;17.004;2023-01-09T05:52:49;22.50;56.20
39751;DHT22;37579;51.074;17.004;2023-01-09T05:55:16;22.50;56.10
39751;DHT22;37579;51.074;17.004;2023-01-09T05:57:42;22.60;56.10
39751;DHT22;37579;51.074;17.004;2023-01-09T06:00:08;22.50;56.10
39751;DHT22;37579;51.074;17.004;2023-01-09T06:02:34;22.50;56.10
39751;DHT22;37579;51.074;17.004;2023-01-09T06:05:00;22.50;56.20
39751;DHT22;37579;51.074;17.004;2023-01-09T06:07:26;22.60;56.40
39751;DHT22;37579;51.074;17.004;2023-01-09T06:09:52;22.60;56.50
39751;DHT22;37579;51.074;17.004;2023-01-09T06:12:17;22.60;56.60
39751;DHT22;37579;51.074;17.004;2023-01-09T06:14:43;22.60;56.60
39751;DHT22;37579;51.074;17.004;2023-01-09T06:17:09;22.60;56.60
39751;DHT22;37579;51.074;17.004;2023-01-09T06:19:36;22.60;56.70
39751;DHT22;37579;51.074;17.004;2023-01-09T06:22:02;22.60;56.70
39751;DHT22;37579;51.074;17.004;2023-01-09T06:24:27;22.60;56.70
39751;DHT22;37579;51.074;17.004;2023-01-09T06:26:53;22.60;56.80
39751;DHT22;37579;51.074;17.004;2023-01-09T06:29:19;22.60;56.80
39751;DHT22;37579;51.074;17.004;2023-01-09T06:31:45;22.60;56.80
39751;DHT22;37579;51.074;17.004;2023-01-09T06:34:11;22.60;56.80
39751;DHT22;37579;51.074;17.004;2023-01-09T06:36:37;22.60;56.90
39751;DHT22;37579;51.074;17.004;2023-01-09T06:39:03;22.60;56.80
39751;DHT22;37579;51.074;17.004;2023-01-09T06:41:29;22.60;56.80
39751;DHT22;37579;51.074;17.004;2023-01-09T06:43:54;22.60;56.90
39751;DHT22;37579;51.074;17.004;2023-01-09T06:46:20;22.70;56.90
39751;DHT22;37579;51.074;17.004;2023-01-09T06:48:46;22.60;56.80
39751;DHT22;37579;51.074;17.004;2023-01-09T06:51:12;22.60;56.60
39751;DHT22;37579;51.074;17.004;2023-01-09T06:53:38;22.70;56.60
39751;DHT22;37579;51.074;17.004;2023-01-09T06:56:04;22.60;56.50
39751;DHT22;37579;51.074;17.004;2023-01-09T06:58:30;22.60;56.50
39751;DHT22;37579;51.074;17.004;2023-01-09T07:00:57;22.70;56.50
39751;DHT22;37579;51.074;17.004;2023-01-09T07:03:23;22.70;56.50
39751;DHT22;37579;51.074;17.004;2023-01-09T07:05:49;22.60;56.40
39751;DHT22;37579;51.074;17.004;2023-01-09T07:08:15;22.60;56.40
39751;DHT22;37579;51.074;17.004;2023-01-09T07:10:42;22.60;56.40
39751;DHT22;37579;51.074;17.004;2023-01-09T07:13:08;22.70;56.50
39751;DHT22;37579;51.074;17.004;2023-01-09T07:15:34;22.70;56.50
39751;DHT22;37579;51.074;17.004;2023-01-09T07:18:00;22.70;56.40
39751;DHT22;37579;51.074;17.004;2023-01-09T07:20:26;22.70;56.40
39751;DHT22;37579;51.074;17.004;2023-01-09T07:22:52;22.70;56.40
39751;DHT22;37579;51.074;17.004;2023-01-09T07:25:19;22.70;56.40
39751;DHT22;37579;51.074;17.004;2023-01-09T07:27:45;22.70;56.40
39751;DHT22;37579;51.074;17.004;2023-01-09T07:30:11;22.70;56.50
39751;DHT22;37579;51.074;17.004;2023-01-09T07:32:37;22.70;56.50
39751;DHT22;37579;51.074;17.004;2023-01-09T07:35:08;22.70;56.50
39751;DHT22;37579;51.074;17.004;2023-01-09T07:37:34;22.70;56.50
39751;DHT22;37579;51.074;17.004;2023-01-09T07:40:00;22.70;56.60
39751;DHT22;37579;51.074;17.004;2023-01-09T07:42:26;22.70;56.60
39751;DHT22;37579;51.074;17.004;2023-01-09T07:44:52;22.70;56.60
39751;DHT22;37579;51.074;17.004;2023-01-09T07:47:18;22.70;56.60
39751;DHT22;37579;51.074;17.004;2023-01-09T07:49:43;22.70;56.60
39751;DHT22;37579;51.074;17.004;2023-01-09T07:52:09;22.70;56.60
39751;DHT22;37579;51.074;17.004;2023-01-09T07:54:35;22.70;56.50
39751;DHT22;37579;51.074;17.004;2023-01-09T07:57:01;22.70;56.50
39751;DHT22;37579;51.074;17.004;2023-01-09T07:59:27;22.70;56.50
39751;DHT22;37579;51.074;17.004;2023-01-09T08:01:54;22.70;56.50
39751;DHT22;37579;51.074;17.004;2023-01-09T08:04:21;22.70;56.50
39751;DHT22;37579;51.074;17.004;2023-01-09T08:06:47;22.70;56.50
39751;DHT22;37579;51.074;17.004;2023-01-09T08:09:13;22.70;56.60
39751;DHT22;37579;51.074;17.004;2023-01-09T08:11:40;22.70;56.70
39751;DHT22;37579;51.074;17.004;2023-01-09T08:14:06;22.70;56.70
39751;DHT22;37579;51.074;17.004;2023-01-09T08:16:32;22.80;56.80
39751;DHT22;37579;51.074;17.004;2023-01-09T08:18:57;22.80;56.70
39751;DHT22;37579;51.074;17.004;2023-01-09T08:21:23;22.70;54.50
39751;DHT22;37579;51.074;17.004;2023-01-09T08:23:49;22.70;56.00
39751;DHT22;37579;51.074;17.004;2023-01-09T08:26:15;22.70;55.80
39751;DHT22;37579;51.074;17.004;2023-01-09T08:28:41;22.80;56.00
39751;DHT22;37579;51.074;17.004;2023-01-09T08:31:07;22.80;56.10
39751;DHT22;37579;51.074;17.004;2023-01-09T08:33:32;22.80;56.20
39751;DHT22;37579;51.074;17.004;2023-01-09T08:35:58;22.80;56.30
39751;DHT22;37579;51.074;17.004;2023-01-09T08:38:24;22.80;56.20
39751;DHT22;37579;51.074;17.004;2023-01-09T08:40:50;22.80;56.20
39751;DHT22;37579;51.074;17.004;2023-01-09T08:43:16;22.80;56.20
39751;DHT22;37579;51.074;17.004;2023-01-09T08:46:04;22.80;56.30
39751;DHT22;37579;51.074;17.004;2023-01-09T08:48:56;22.80;56.30
39751;DHT22;37579;51.074;17.004;2023-01-09T08:51:22;22.80;56.20
39751;DHT22;37579;51.074;17.004;2023-01-09T08:53:48;22.80;56.20
39751;DHT22;37579;51.074;17.004;2023-01-09T08:56:13;22.80;56.20
39751;DHT22;37579;51.074;17.004;2023-01-09T08:58:39;22.80;56.20
39751;DHT22;37579;51.074;17.004;2023-01-09T09:01:06;22.80;56.20
39751;DHT22;37579;51.074;17.004;2023-01-09T09:03:32;22.80;56.20
39751;DHT22;37579;51.074;17.004;2023-01-09T09:08:43;22.80;56.30
39751;DHT22;37579;51.074;17.004;2023-01-09T09:11:08;22.90;56.40
39751;DHT22;37579;51.074;17.004;2023-01-09T09:13:34;22.90;56.40
39751;DHT22;37579;51.074;17.004;2023-01-09T09:16:00;22.90;56.40
39751;DHT22;37579;51.074;17.004;2023-01-09T09:18:26;22.90;56.40
39751;DHT22;37579;51.074;17.004;2023-01-09T09:20:51;22.90;56.50
39751;DHT22;37579;51.074;17.004;2023-01-09T09:23:17;22.90;56.80
39751;DHT22;37579;51.074;17.004;2023-01-09T09:25:43;23.00;56.70
39751;DHT22;37579;51.074;17.004;2023-01-09T09:28:09;23.00;56.90
39751;DHT22;37579;51.074;17.004;2023-01-09T09:30:37;22.90;56.90
39751;DHT22;37579;51.074;17.004;2023-01-09T09:33:03;22.90;56.90
39751;DHT22;37579;51.074;17.004;2023-01-09T09:35:29;23.00;57.10
39751;DHT22;37579;51.074;17.004;2023-01-09T09:38:01;23.00;57.10
39751;DHT22;37579;51.074;17.004;2023-01-09T09:49:05;23.00;57.10
39751;DHT22;37579;51.074;17.004;2023-01-09T09:51:57;23.00;57.10
39751;DHT22;37579;51.074;17.004;2023-01-09T09:54:37;23.00;57.10
39751;DHT22;37579;51.074;17.004;2023-01-09T09:57:07;23.00;57.10
39751;DHT22;37579;51.074;17.004;2023-01-09T09:59:36;23.00;57.00
39751;DHT22;37579;51.074;17.004;2023-01-09T10:04:39;22.90;56.90
39751;DHT22;37579;51.074;17.004;2023-01-09T10:07:19;22.90;56.90
39751;DHT22;37579;51.074;17.004;2023-01-09T10:09:54;23.00;56.80
39751;DHT22;37579;51.074;17.004;2023-01-09T10:12:43;23.00;56.70
39751;DHT22;37579;51.074;17.004;2023-01-09T10:16:04;23.00;56.70
39751;DHT22;37579;51.074;17.004;2023-01-09T10:23:48;23.00;56.50
39751;DHT22;37579;51.074;17.004;2023-01-09T10:26:29;23.00;56.70
39751;DHT22;37579;51.074;17.004;2023-01-09T10:29:32;23.00;56.70
39751;DHT22;37579;51.074;17.004;2023-01-09T10:37:29;22.90;56.70
39751;DHT22;37579;51.074;17.004;2023-01-09T10:40:19;23.00;56.90
39751;DHT22;37579;51.074;17.004;2023-01-09T10:42:49;23.00;56.80
39751;DHT22;37579;51.074;17.004;2023-01-09T10:48:23;23.00;57.10
39751;DHT22;37579;51.074;17.004;2023-01-09T10:50:51;22.90;57.00
39751;DHT22;37579;51.074;17.004;2023-01-09T10:53:33;23.00;57.10
39751;DHT22;37579;51.074;17.004;2023-01-09T10:56:10;22.90;57.00
39751;DHT22;37579;51.074;17.004;2023-01-09T10:58:37;22.90;57.00
39751;DHT22;37579;51.074;17.004;2023-01-09T11:01:04;23.00;57.20
39751;DHT22;37579;51.074;17.004;2023-01-09T11:03:30;22.90;57.20
39751;DHT22;37579;51.074;17.004;2023-01-09T11:05:57;23.00;57.20
39751;DHT22;37579;51.074;17.004;2023-01-09T11:14:04;23.00;57.40
39751;DHT22;37579;51.074;17.004;2023-01-09T11:16:30;22.90;57.30
39751;DHT22;37579;51.074;17.004;2023-01-09T11:18:58;22.90;57.40
39751;DHT22;37579;51.074;17.004;2023-01-09T11:21:30;22.90;57.40
39751;DHT22;37579;51.074;17.004;2023-01-09T11:30:12;22.90;57.50
39751;DHT22;37579;51.074;17.004;2023-01-09T11:32:39;22.90;57.60
39751;DHT22;37579;51.074;17.004;2023-01-09T11:35:13;22.90;57.60
39751;DHT22;37579;51.074;17.004;2023-01-09T11:37:39;22.90;57.60
39751;DHT22;37579;51.074;17.004;2023-01-09T11:40:16;22.90;57.70
39751;DHT22;37579;51.074;17.004;2023-01-09T11:43:04;22.90;57.80
39751;DHT22;37579;51.074;17.004;2023-01-09T11:45:32;22.90;57.90
39751;DHT22;37579;51.074;17.004;2023-01-09T11:47:59;22.90;58.10
39751;DHT22;37579;51.074;17.004;2023-01-09T11:50:30;22.80;58.40
39751;DHT22;37579;51.074;17.004;2023-01-09T11:53:15;22.90;58.70
39751;DHT22;37579;51.074;17.004;2023-01-09T11:55:42;22.80;58.70
39751;DHT22;37579;51.074;17.004;2023-01-09T11:58:30;22.90;58.80
39751;DHT22;37579;51.074;17.004;2023-01-09T12:08:59;22.80;58.70
39751;DHT22;37579;51.074;17.004;2023-01-09T12:43:54;22.80;61.30
39751;DHT22;37579;51.074;17.004;2023-01-09T12:46:24;22.80;61.20
39751;DHT22;37579;51.074;17.004;2023-01-09T12:54:35;22.90;60.80
39751;DHT22;37579;51.074;17.004;2023-01-09T12:59:48;22.90;60.90
39751;DHT22;37579;51.074;17.004;2023-01-09T13:04:59;22.90;60.80
39751;DHT22;37579;51.074;17.004;2023-01-09T13:07:26;22.90;60.80
39751;DHT22;37579;51.074;17.004;2023-01-09T13:10:05;22.90;60.80
39751;DHT22;37579;51.074;17.004;2023-01-09T13:12:35;22.90;60.80
39751;DHT22;37579;51.074;17.004;2023-01-09T13:15:29;22.80;61.40
39751;DHT22;37579;51.074;17.004;2023-01-09T13:18:04;22.80;60.80
39751;DHT22;37579;51.074;17.004;2023-01-09T13:20:52;22.80;60.70
39751;DHT22;37579;51.074;17.004;2023-01-09T13:26:16;22.80;60.60
39751;DHT22;37579;51.074;17.004;2023-01-09T13:28:54;22.80;60.50
39751;DHT22;37579;51.074;17.004;2023-01-09T13:34:20;22.80;60.40
39751;DHT22;37579;51.074;17.004;2023-01-09T13:36:53;22.80;60.40
39751;DHT22;37579;51.074;17.004;2023-01-09T13:42:16;22.80;60.40
39751;DHT22;37579;51.074;17.004;2023-01-09T13:47:42;22.80;60.40
39751;DHT22;37579;51.074;17.004;2023-01-09T13:52:41;22.80;60.40
39751;DHT22;37579;51.074;17.004;2023-01-09T13:58:19;22.80;60.40
39751;DHT22;37579;51.074;17.004;2023-01-09T14:00:47;22.80;60.40
39751;DHT22;37579;51.074;17.004;2023-01-09T14:03:20;22.80;60.40
39751;DHT22;37579;51.074;17.004;2023-01-09T14:13:13;22.80;60.40
39751;DHT22;37579;51.074;17.004;2023-01-09T14:15:41;22.70;60.40
39751;DHT22;37579;51.074;17.004;2023-01-09T14:18:36;22.70;60.40
39751;DHT22;37579;51.074;17.004;2023-01-09T14:21:08;22.70;60.30
39751;DHT22;37579;51.074;17.004;2023-01-09T14:26:04;22.70;60.10
39751;DHT22;37579;51.074;17.004;2023-01-09T14:28:32;22.70;60.30
39751;DHT22;37579;51.074;17.004;2023-01-09T14:33:26;22.70;60.10
39751;DHT22;37579;51.074;17.004;2023-01-09T14:38:45;22.70;60.00
39751;DHT22;37579;51.074;17.004;2023-01-09T14:41:31;22.70;59.90
39751;DHT22;37579;51.074;17.004;2023-01-09T14:46:59;22.70;60.00
39751;DHT22;37579;51.074;17.004;2023-01-09T14:49:33;22.70;60.00
39751;DHT22;37579;51.074;17.004;2023-01-09T14:52:06;22.70;60.10
39751;DHT22;37579;51.074;17.004;2023-01-09T14:54:36;22.70;60.10
39751;DHT22;37579;51.074;17.004;2023-01-09T14:57:02;22.70;60.20
39751;DHT22;37579;51.074;17.004;2023-01-09T15:02:34;22.70;60.30
39751;DHT22;37579;51.074;17.004;2023-01-09T15:05:03;22.70;60.30
39751;DHT22;37579;51.074;17.004;2023-01-09T15:07:32;22.70;60.40
39751;DHT22;37579;51.074;17.004;2023-01-09T15:10:05;22.70;60.40
39751;DHT22;37579;51.074;17.004;2023-01-09T15:12:33;22.80;60.60
39751;DHT22;37579;51.074;17.004;2023-01-09T15:15:01;22.80;60.50
39751;DHT22;37579;51.074;17.004;2023-01-09T15:17:33;22.80;60.50
39751;DHT22;37579;51.074;17.004;2023-01-09T15:20:02;22.80;60.40
39751;DHT22;37579;51.074;17.004;2023-01-09T15:22:35;22.80;60.50
39751;DHT22;37579;51.074;17.004;2023-01-09T15:27:46;22.80;60.40
39751;DHT22;37579;51.074;17.004;2023-01-09T15:30:20;22.80;60.40
39751;DHT22;37579;51.074;17.004;2023-01-09T15:32:51;22.80;60.30
39751;DHT22;37579;51.074;17.004;2023-01-09T15:35:17;22.80;60.20
39751;DHT22;37579;51.074;17.004;2023-01-09T15:37:44;22.90;60.30
39751;DHT22;37579;51.074;17.004;2023-01-09T15:40:21;22.90;60.30
39751;DHT22;37579;51.074;17.004;2023-01-09T15:42:51;22.90;60.30
39751;DHT22;37579;51.074;17.004;2023-01-09T15:45:35;22.90;60.20
39751;DHT22;37579;51.074;17.004;2023-01-09T15:50:50;22.90;60.20
39751;DHT22;37579;51.074;17.004;2023-01-09T15:53:19;22.90;60.80
39751;DHT22;37579;51.074;17.004;2023-01-09T15:56:05;22.90;59.50
39751;DHT22;37579;51.074;17.004;2023-01-09T15:58:43;22.90;60.70
39751;DHT22;37579;51.074;17.004;2023-01-09T16:03:43;22.90;60.00
39751;DHT22;37579;51.074;17.004;2023-01-09T16:06:13;22.90;60.10
39751;DHT22;37579;51.074;17.004;2023-01-09T16:08:46;22.90;60.10
39751;DHT22;37579;51.074;17.004;2023-01-09T16:13:51;22.90;60.10
39751;DHT22;37579;51.074;17.004;2023-01-09T16:16:24;22.90;60.10
39751;DHT22;37579;51.074;17.004;2023-01-09T16:18:52;22.90;60.10
39751;DHT22;37579;51.074;17.004;2023-01-09T16:21:33;22.90;60.20
39751;DHT22;37579;51.074;17.004;2023-01-09T16:26:33;22.90;60.20
39751;DHT22;37579;51.074;17.004;2023-01-09T16:29:25;22.90;60.00
39751;DHT22;37579;51.074;17.004;2023-01-09T16:31:58;22.90;59.70
39751;DHT22;37579;51.074;17.004;2023-01-09T16:34:24;22.90;59.80
39751;DHT22;37579;51.074;17.004;2023-01-09T16:36:50;22.90;59.70
39751;DHT22;37579;51.074;17.004;2023-01-09T16:39:16;22.90;59.70
39751;DHT22;37579;51.074;17.004;2023-01-09T16:41:42;22.90;59.70
39751;DHT22;37579;51.074;17.004;2023-01-09T16:44:27;22.90;59.80
39751;DHT22;37579;51.074;17.004;2023-01-09T16:46:52;22.90;59.90
39751;DHT22;37579;51.074;17.004;2023-01-09T16:49:19;22.90;60.00
39751;DHT22;37579;51.074;17.004;2023-01-09T16:51:46;23.00;60.10
39751;DHT22;37579;51.074;17.004;2023-01-09T16:54:13;23.00;60.20
39751;DHT22;37579;51.074;17.004;2023-01-09T16:56:40;23.00;60.30
39751;DHT22;37579;51.074;17.004;2023-01-09T16:59:14;23.00;60.50
39751;DHT22;37579;51.074;17.004;2023-01-09T17:01:40;22.90;61.20
39751;DHT22;37579;51.074;17.004;2023-01-09T17:04:15;23.00;60.90
39751;DHT22;37579;51.074;17.004;2023-01-09T17:06:42;23.00;61.00
39751;DHT22;37579;51.074;17.004;2023-01-09T17:09:14;23.00;61.40
39751;DHT22;37579;51.074;17.004;2023-01-09T17:11:40;23.00;61.50
39751;DHT22;37579;51.074;17.004;2023-01-09T17:14:08;23.00;61.60
39751;DHT22;37579;51.074;17.004;2023-01-09T17:16:34;23.00;61.80
39751;DHT22;37579;51.074;17.004;2023-01-09T17:19:01;23.00;61.80
39751;DHT22;37579;51.074;17.004;2023-01-09T17:21:27;23.00;61.90
39751;DHT22;37579;51.074;17.004;2023-01-09T17:23:54;23.00;62.00
39751;DHT22;37579;51.074;17.004;2023-01-09T17:26:41;23.00;62.30
39751;DHT22;37579;51.074;17.004;2023-01-09T17:29:27;23.10;62.20
39751;DHT22;37579;51.074;17.004;2023-01-09T17:31:53;23.10;62.20
39751;DHT22;37579;51.074;17.004;2023-01-09T17:34:19;23.10;62.10
39751;DHT22;37579;51.074;17.004;2023-01-09T17:36:45;23.10;61.90
39751;DHT22;37579;51.074;17.004;2023-01-09T17:39:15;23.20;61.90
39751;DHT22;37579;51.074;17.004;2023-01-09T17:41:41;23.20;61.80
39751;DHT22;37579;51.074;17.004;2023-01-09T17:44:09;23.20;61.80
39751;DHT22;37579;51.074;17.004;2023-01-09T17:46:37;23.20;61.80
39751;DHT22;37579;51.074;17.004;2023-01-09T17:49:04;23.20;61.80
39751;DHT22;37579;51.074;17.004;2023-01-09T17:51:30;23.20;61.60
39751;DHT22;37579;51.074;17.004;2023-01-09T17:53:56;23.20;61.50
39751;DHT22;37579;51.074;17.004;2023-01-09T17:56:33;23.30;61.50
39751;DHT22;37579;51.074;17.004;2023-01-09T17:59:02;23.20;61.40
39751;DHT22;37579;51.074;17.004;2023-01-09T18:01:29;23.20;61.40
39751;DHT22;37579;51.074;17.004;2023-01-09T18:03:54;23.30;61.50
39751;DHT22;37579;51.074;17.004;2023-01-09T18:06:21;23.30;61.60
39751;DHT22;37579;51.074;17.004;2023-01-09T18:08:47;23.30;61.70
39751;DHT22;37579;51.074;17.004;2023-01-09T18:11:15;23.30;61.60
39751;DHT22;37579;51.074;17.004;2023-01-09T18:13:45;23.30;61.60
39751;DHT22;37579;51.074;17.004;2023-01-09T18:16:15;23.20;61.50
39751;DHT22;37579;51.074;17.004;2023-01-09T18:18:41;23.30;61.60
39751;DHT22;37579;51.074;17.004;2023-01-09T18:21:07;23.30;61.70